Aviation Digital Data Service (ADDS)

Output produced by TAFs form (0710 UTC 23 February 2017)
found at http://aviationweather.gov/adds/tafs/
 
KPUB 230551Z 2306/2406 36014KT P6SM BKN200 
     FM230900 35008KT P6SM SCT200 
     FM231700 27025G35KT P6SM FEW080 SCT200 
     FM232000 29030G42KT P6SM FEW100 SCT200 
     FM240300 35020G32KT P6SM SCT060 BKN080